createdAt,value
2022-11-22T00:00:36.863Z,3.53
2022-11-22T00:03:49.226Z,3.53
2022-11-22T00:06:50.929Z,3.53
2022-11-22T00:09:52.500Z,3.51
2022-11-22T00:12:54.167Z,3.50
2022-11-22T00:16:00.083Z,3.49
2022-11-22T00:19:01.660Z,3.48
2022-11-22T00:22:03.206Z,3.47
2022-11-22T00:25:05.801Z,3.48
2022-11-22T00:28:07.429Z,3.48
2022-11-22T00:31:08.979Z,3.52
2022-11-22T00:34:10.531Z,3.54
2022-11-22T00:37:12.135Z,3.55
2022-11-22T00:40:13.986Z,3.56
2022-11-22T00:43:15.559Z,3.57
2022-11-22T00:46:17.163Z,3.57
2022-11-22T00:49:18.713Z,3.58
2022-11-22T00:52:20.322Z,3.58
2022-11-22T00:55:21.938Z,3.59
2022-11-22T00:58:23.520Z,3.60
2022-11-22T01:01:25.105Z,3.61
2022-11-22T01:04:26.740Z,3.62
2022-11-22T01:07:28.319Z,3.62
2022-11-22T01:10:29.949Z,3.62
2022-11-22T01:13:31.621Z,3.64
2022-11-22T01:16:33.139Z,3.64
2022-11-22T01:19:34.694Z,3.65
2022-11-22T01:22:36.184Z,3.66
2022-11-22T01:25:37.782Z,3.66
2022-11-22T01:28:39.301Z,3.67
2022-11-22T01:31:40.828Z,3.68
2022-11-22T01:34:42.355Z,3.69
2022-11-22T01:37:43.856Z,3.68
2022-11-22T01:40:45.405Z,3.68
2022-11-22T01:43:46.974Z,3.68
2022-11-22T01:46:52.969Z,3.68
2022-11-22T01:49:59.794Z,3.67
2022-11-22T01:53:10.072Z,3.67
2022-11-22T01:56:15.106Z,3.66
2022-11-22T01:59:21.707Z,3.65
2022-11-22T02:02:24.047Z,3.65
2022-11-22T02:05:30.161Z,3.65
2022-11-22T02:09:03.852Z,3.64
2022-11-22T02:12:07.954Z,3.64
2022-11-22T02:15:11.081Z,3.63
2022-11-22T02:18:13.386Z,3.62
2022-11-22T02:21:14.855Z,3.61
2022-11-22T02:24:21.919Z,3.62
2022-11-22T02:27:23.699Z,3.61
2022-11-22T02:30:25.269Z,3.59
2022-11-22T02:33:26.980Z,3.58
2022-11-22T02:36:32.500Z,3.56
2022-11-22T02:39:34.089Z,3.54
2022-11-22T02:42:35.846Z,3.53
2022-11-22T02:45:37.411Z,3.52
2022-11-22T02:48:43.275Z,3.51
2022-11-22T02:51:45.764Z,3.50
2022-11-22T02:54:47.352Z,3.49
2022-11-22T02:57:48.887Z,3.49
2022-11-22T03:00:50.574Z,3.47
2022-11-22T03:03:52.623Z,3.46
2022-11-22T03:06:55.904Z,3.45
2022-11-22T03:09:57.468Z,3.43
2022-11-22T03:12:59.200Z,3.43
2022-11-22T03:16:00.798Z,3.43
2022-11-22T03:19:02.448Z,3.44
2022-11-22T03:22:03.990Z,3.44
2022-11-22T03:25:06.007Z,3.42
2022-11-22T03:28:07.552Z,3.41
2022-11-22T03:31:09.132Z,3.40
2022-11-22T03:34:11.798Z,3.40
2022-11-22T03:37:13.369Z,3.40
2022-11-22T03:40:15.387Z,3.40
2022-11-22T03:43:17.205Z,3.40
2022-11-22T03:46:18.946Z,3.40
2022-11-22T03:49:20.493Z,3.40
2022-11-22T03:52:21.970Z,3.39
2022-11-22T03:55:23.500Z,3.38
2022-11-22T03:58:25.143Z,3.37
2022-11-22T04:01:26.736Z,3.37
2022-11-22T04:04:28.254Z,3.36
2022-11-22T04:07:29.822Z,3.35
2022-11-22T04:10:31.368Z,3.35
2022-11-22T04:13:51.261Z,3.34
2022-11-22T04:16:52.761Z,3.34
2022-11-22T04:20:14.558Z,3.34
2022-11-22T04:23:18.539Z,3.33
2022-11-22T04:26:20.090Z,3.33
2022-11-22T04:29:22.372Z,3.32
2022-11-22T04:32:42.330Z,3.31
2022-11-22T04:35:44.446Z,3.29
2022-11-22T04:38:45.910Z,3.26
2022-11-22T04:42:07.472Z,3.24
2022-11-22T04:45:09.441Z,3.23
2022-11-22T04:48:11.871Z,3.21
2022-11-22T04:51:33.254Z,3.20
2022-11-22T04:54:34.805Z,3.17
2022-11-22T04:57:36.297Z,3.13
2022-11-22T05:00:38.809Z,3.11
2022-11-22T05:03:40.512Z,3.09
2022-11-22T05:06:42.089Z,3.06
2022-11-22T05:09:43.862Z,3.04
2022-11-22T05:12:48.345Z,3.02
2022-11-22T05:15:52.728Z,3.00
2022-11-22T05:19:00.862Z,2.97
2022-11-22T05:22:08.321Z,2.95
2022-11-22T05:25:10.067Z,2.94
2022-11-22T05:28:11.595Z,2.90
2022-11-22T05:31:16.219Z,2.87
2022-11-22T05:34:17.750Z,2.83
2022-11-22T05:37:19.237Z,2.79
2022-11-22T05:40:20.709Z,2.76
2022-11-22T05:43:22.381Z,2.73
2022-11-22T05:46:26.850Z,2.69
2022-11-22T05:49:28.828Z,2.66
2022-11-22T05:52:30.741Z,2.63
2022-11-22T05:55:32.260Z,2.60
2022-11-22T05:58:34.531Z,2.56
2022-11-22T06:01:36.087Z,2.52
2022-11-22T06:04:37.587Z,2.47
2022-11-22T06:07:39.189Z,2.44
2022-11-22T06:10:40.657Z,2.42
2022-11-22T06:13:43.777Z,2.41
2022-11-22T06:16:45.391Z,2.39
2022-11-22T06:19:46.956Z,2.37
2022-11-22T06:22:48.469Z,2.36
2022-11-22T06:25:57.332Z,2.36
2022-11-22T06:28:58.878Z,2.35
2022-11-22T06:32:03.556Z,2.34
2022-11-22T06:35:06.277Z,2.33
2022-11-22T06:38:08.288Z,2.33
2022-11-22T06:41:15.117Z,2.33
2022-11-22T06:44:16.739Z,2.34
2022-11-22T06:47:18.486Z,2.35
2022-11-22T06:50:21.909Z,2.37
2022-11-22T06:53:45.638Z,2.37
2022-11-22T06:56:45.173Z,2.36
2022-11-22T06:59:49.658Z,2.37
2022-11-22T07:02:51.169Z,2.37
2022-11-22T07:05:53.072Z,2.36
2022-11-22T07:08:54.756Z,2.36
2022-11-22T07:11:56.320Z,2.37
2022-11-22T07:14:57.818Z,2.38
2022-11-22T07:17:59.368Z,2.40
2022-11-22T07:21:01.901Z,2.41
2022-11-22T07:24:05.014Z,2.43
2022-11-22T07:27:06.528Z,2.44
2022-11-22T07:30:08.930Z,2.45
2022-11-22T07:33:10.464Z,2.47
2022-11-22T07:36:14.795Z,2.48
2022-11-22T07:39:16.328Z,2.51
2022-11-22T07:42:21.159Z,2.52
2022-11-22T07:45:25.318Z,2.60
2022-11-22T07:48:27.064Z,2.64
2022-11-22T07:51:29.343Z,2.67
2022-11-22T07:54:30.856Z,2.70
2022-11-22T07:57:33.093Z,2.73
2022-11-22T08:00:34.830Z,2.76
2022-11-22T08:03:37.128Z,2.81
2022-11-22T08:06:38.634Z,2.86
2022-11-22T08:09:40.267Z,2.92
2022-11-22T08:12:42.709Z,2.98
2022-11-22T08:15:45.080Z,3.06
2022-11-22T08:18:48.296Z,3.13
2022-11-22T08:21:55.330Z,3.21
2022-11-22T08:24:59.767Z,3.28
2022-11-22T08:28:01.613Z,3.35
2022-11-22T08:31:15.568Z,3.43
2022-11-22T08:34:17.218Z,3.52
2022-11-22T08:37:18.807Z,3.58
2022-11-22T08:40:20.646Z,3.67
2022-11-22T08:43:22.671Z,3.77
2022-11-22T08:46:24.299Z,3.88
2022-11-22T08:49:25.995Z,3.97
2022-11-22T08:52:27.617Z,4.05
2022-11-22T08:55:29.225Z,4.14
2022-11-22T08:58:33.554Z,4.22
2022-11-22T09:01:35.246Z,4.32
2022-11-22T09:04:36.951Z,4.43
2022-11-22T09:11:02.105Z,4.62
2022-11-22T09:14:03.667Z,4.72
2022-11-22T09:17:05.716Z,4.81
2022-11-22T09:20:08.337Z,4.90
2022-11-22T09:23:10.052Z,5.00
2022-11-22T09:26:26.250Z,5.09
2022-11-22T09:29:28.278Z,5.18
2022-11-22T09:32:33.628Z,5.25
2022-11-22T09:35:35.650Z,5.33
2022-11-22T09:38:37.791Z,5.41
2022-11-22T09:41:51.240Z,5.48
2022-11-22T09:45:17.841Z,5.55
2022-11-22T09:48:49.667Z,5.62
2022-11-22T09:52:05.561Z,5.67
2022-11-22T09:55:26.408Z,5.72
2022-11-22T09:58:51.030Z,5.76
2022-11-22T10:02:18.708Z,5.81
2022-11-22T10:05:25.542Z,5.87
2022-11-22T10:08:51.282Z,5.91
2022-11-22T10:12:10.455Z,5.96
2022-11-22T10:15:21.133Z,6.02
2022-11-22T10:18:33.688Z,6.07
2022-11-22T10:21:35.477Z,6.14
2022-11-22T10:24:37.257Z,6.21
2022-11-22T10:27:41.727Z,6.27
2022-11-22T10:30:54.559Z,6.33
2022-11-22T10:34:09.133Z,6.41
2022-11-22T10:37:24.668Z,6.49
2022-11-22T10:40:41.561Z,6.59
2022-11-22T10:44:20.781Z,6.69
2022-11-22T10:47:47.395Z,6.82
2022-11-22T10:51:11.484Z,6.94
2022-11-22T10:54:23.388Z,7.10
2022-11-22T10:57:31.216Z,7.23
2022-11-22T11:00:38.777Z,7.37
2022-11-22T11:03:43.717Z,7.51
2022-11-22T11:10:32.416Z,7.77
2022-11-22T11:13:42.769Z,7.90
2022-11-22T11:16:44.699Z,8.00
2022-11-22T11:19:53.339Z,8.07
2022-11-22T11:26:30.253Z,8.21
2022-11-22T11:29:37.745Z,8.25
2022-11-22T11:33:00.539Z,8.28
2022-11-22T11:36:04.815Z,8.32
2022-11-22T11:39:20.420Z,8.38
2022-11-22T11:42:25.595Z,8.43
2022-11-22T11:45:28.532Z,8.47
2022-11-22T11:48:40.532Z,8.52
2022-11-22T11:51:43.387Z,8.59
2022-11-22T11:54:47.659Z,8.59
2022-11-22T11:57:51.980Z,8.57
2022-11-22T12:00:53.698Z,8.55
2022-11-22T12:03:59.691Z,8.50
2022-11-22T12:07:16.252Z,8.38
2022-11-22T12:10:30.496Z,8.26
2022-11-22T12:14:12.459Z,8.14
2022-11-22T12:17:11.925Z,8.02
2022-11-22T12:20:41.429Z,7.92
2022-11-22T12:23:51.167Z,7.82
2022-11-22T12:26:55.912Z,7.73
2022-11-22T12:29:58.331Z,7.66
2022-11-22T12:33:06.161Z,7.60
2022-11-22T12:36:18.421Z,7.55
2022-11-22T12:39:23.810Z,7.51
2022-11-22T12:42:33.543Z,7.46
2022-11-22T12:45:40.033Z,7.42
2022-11-22T12:48:49.286Z,7.38
2022-11-22T12:52:07.927Z,7.34
2022-11-22T12:55:23.466Z,7.31
2022-11-22T12:58:40.459Z,7.27
2022-11-22T13:01:42.038Z,7.24
2022-11-22T13:04:52.851Z,7.21
2022-11-22T13:08:47.478Z,7.18
2022-11-22T13:12:01.886Z,7.16
2022-11-22T13:15:04.065Z,7.12
2022-11-22T13:18:10.364Z,7.09
2022-11-22T13:21:42.256Z,7.06
2022-11-22T13:24:59.170Z,7.03
2022-11-22T13:28:05.274Z,7.00
2022-11-22T13:31:09.460Z,6.98
2022-11-22T13:34:25.856Z,6.95
2022-11-22T13:37:33.172Z,6.93
2022-11-22T13:40:41.340Z,6.91
2022-11-22T13:43:55.628Z,6.89
2022-11-22T13:47:24.478Z,6.88
2022-11-22T13:50:41.330Z,6.87
2022-11-22T13:53:45.604Z,6.86
2022-11-22T13:56:58.859Z,6.85
2022-11-22T14:00:15.962Z,6.85
2022-11-22T14:03:25.603Z,6.85
2022-11-22T14:06:30.111Z,6.84
2022-11-22T14:09:43.502Z,6.84
2022-11-22T14:12:59.331Z,6.82
2022-11-22T14:16:19.868Z,6.83
2022-11-22T14:19:52.460Z,6.82
2022-11-22T14:23:03.112Z,6.82
2022-11-22T14:26:26.030Z,6.81
2022-11-22T14:29:55.197Z,6.80
2022-11-22T14:33:15.983Z,6.80
2022-11-22T14:36:21.215Z,6.80
2022-11-22T14:39:44.518Z,6.79
2022-11-22T14:42:51.979Z,6.78
2022-11-22T14:46:00.035Z,6.78
2022-11-22T14:49:28.379Z,6.77
2022-11-22T14:52:32.419Z,6.76
2022-11-22T14:55:34.979Z,6.75
2022-11-22T14:58:41.637Z,6.74
2022-11-22T15:02:20.740Z,6.74
2022-11-22T15:09:17.239Z,6.71
2022-11-22T15:09:53.405Z,6.70
2022-11-22T15:13:01.287Z,6.67
2022-11-22T15:58:00.318Z,6.33
2022-11-22T16:01:19.203Z,6.30
2022-11-22T16:04:28.698Z,6.27
2022-11-22T16:07:38.717Z,6.24
2022-11-22T16:10:42.210Z,6.21
2022-11-22T16:13:43.923Z,6.18
2022-11-22T16:16:45.536Z,6.16
2022-11-22T16:19:47.460Z,6.13
2022-11-22T16:23:14.060Z,6.12
2022-11-22T16:26:25.175Z,6.10
2022-11-22T16:29:33.208Z,6.09
2022-11-22T16:32:34.999Z,6.07
2022-11-22T16:35:36.977Z,6.05
2022-11-22T16:38:39.275Z,6.03
2022-11-22T16:41:41.136Z,6.03
2022-11-22T16:44:42.763Z,6.02
2022-11-22T16:47:44.766Z,6.00
2022-11-22T16:51:12.495Z,5.98
2022-11-22T16:54:16.448Z,5.97
2022-11-22T16:57:18.363Z,5.96
2022-11-22T17:00:20.177Z,5.93
2022-11-22T17:03:29.072Z,5.93
2022-11-22T17:06:31.610Z,5.92
2022-11-22T17:09:33.935Z,5.91
2022-11-22T17:12:35.845Z,5.91
2022-11-22T17:15:39.302Z,5.90
2022-11-22T17:18:40.947Z,5.89
2022-11-22T17:21:43.533Z,5.89
2022-11-22T17:24:45.154Z,5.90
2022-11-22T17:27:50.298Z,5.90
2022-11-22T17:31:00.771Z,5.91
2022-11-22T17:34:02.838Z,5.91
2022-11-22T17:37:10.248Z,5.91
2022-11-22T17:40:12.854Z,5.92
2022-11-22T17:43:14.453Z,5.92
2022-11-22T17:46:16.464Z,5.92
2022-11-22T17:49:18.036Z,5.93
2022-11-22T17:52:19.638Z,5.93
2022-11-22T17:55:21.183Z,5.95
2022-11-22T17:58:22.728Z,5.95
2022-11-22T18:01:24.623Z,5.95
2022-11-22T18:04:26.393Z,5.96
2022-11-22T18:07:28.922Z,5.96
2022-11-22T18:10:38.179Z,5.97
2022-11-22T18:13:40.334Z,5.97
2022-11-22T18:16:59.674Z,5.97
2022-11-22T18:20:01.723Z,5.97
2022-11-22T18:23:03.348Z,5.97
2022-11-22T18:26:31.866Z,5.98
2022-11-22T18:29:45.092Z,5.97
2022-11-22T18:32:46.910Z,5.97
2022-11-22T18:36:01.064Z,5.98
2022-11-22T18:39:03.173Z,5.97
2022-11-22T18:42:07.950Z,5.97
2022-11-22T18:45:13.944Z,5.97
2022-11-22T18:48:21.831Z,5.97
2022-11-22T18:51:29.568Z,5.98
2022-11-22T18:54:31.630Z,5.97
2022-11-22T18:57:34.022Z,5.97
2022-11-22T19:00:35.739Z,5.97
2022-11-22T19:03:37.827Z,5.97
2022-11-22T19:06:40.228Z,5.97
2022-11-22T19:09:42.204Z,5.97
2022-11-22T19:12:43.829Z,5.98
2022-11-22T19:15:46.081Z,5.98
2022-11-22T19:18:47.868Z,5.97
2022-11-22T19:21:49.465Z,5.97
2022-11-22T19:24:51.411Z,5.96
2022-11-22T19:27:53.218Z,5.95
2022-11-22T19:31:09.733Z,5.95
2022-11-22T19:34:12.190Z,5.95
2022-11-22T19:37:13.815Z,5.95
2022-11-22T19:40:15.412Z,5.94
2022-11-22T19:43:20.325Z,5.94
2022-11-22T19:46:22.731Z,5.95
2022-11-22T19:49:24.824Z,5.95
2022-11-22T19:52:26.359Z,5.96
2022-11-22T19:55:28.664Z,5.94
2022-11-22T19:58:31.048Z,5.94
2022-11-22T20:01:33.789Z,5.92
2022-11-22T20:04:35.459Z,5.91
2022-11-22T20:07:37.135Z,5.88
2022-11-22T20:10:39.383Z,5.86
2022-11-22T20:13:42.683Z,5.85
2022-11-22T20:16:44.388Z,5.84
2022-11-22T20:19:45.977Z,5.81
2022-11-22T20:22:47.535Z,5.80
2022-11-22T20:25:49.107Z,5.79
2022-11-22T20:28:55.080Z,5.78
2022-11-22T20:31:58.356Z,5.78
2022-11-22T20:34:59.937Z,5.77
2022-11-22T20:38:01.494Z,5.75
2022-11-22T20:41:06.975Z,5.75
2022-11-22T20:44:13.140Z,5.74
2022-11-22T20:47:14.673Z,5.73
2022-11-22T20:50:16.716Z,5.71
2022-11-22T20:53:18.356Z,5.68
2022-11-22T20:56:20.308Z,5.65
2022-11-22T20:59:21.969Z,5.62
2022-11-22T21:02:23.690Z,5.58
2022-11-22T21:05:25.377Z,5.54
2022-11-22T21:08:27.109Z,5.50
2022-11-22T21:11:30.276Z,5.46
2022-11-22T21:14:31.982Z,5.42
2022-11-22T21:17:46.073Z,5.39
2022-11-22T21:21:21.826Z,5.34
2022-11-22T21:24:23.363Z,5.29
2022-11-22T21:27:24.965Z,5.26
2022-11-22T21:30:26.604Z,5.22
2022-11-22T21:33:33.223Z,5.19
2022-11-22T21:36:34.852Z,5.17
2022-11-22T21:39:36.730Z,5.14
2022-11-22T21:42:40.011Z,5.11
2022-11-22T21:45:41.703Z,5.09
2022-11-22T21:48:43.320Z,5.08
2022-11-22T21:51:45.247Z,5.06
2022-11-22T21:54:46.930Z,5.05
2022-11-22T21:57:48.639Z,5.04
2022-11-22T22:00:52.845Z,5.01
2022-11-22T22:03:54.753Z,5.01
2022-11-22T22:06:56.349Z,5.00
2022-11-22T22:09:57.916Z,5.00
2022-11-22T22:12:59.539Z,4.99
2022-11-22T22:16:05.816Z,4.98
2022-11-22T22:19:09.591Z,4.96
2022-11-22T22:22:11.284Z,4.94
2022-11-22T22:25:12.846Z,4.91
2022-11-22T22:28:14.351Z,4.88
2022-11-22T22:31:21.951Z,4.86
2022-11-22T22:34:24.013Z,4.84
2022-11-22T22:37:25.548Z,4.82
2022-11-22T22:40:27.176Z,4.81
2022-11-22T22:43:34.960Z,4.80
2022-11-22T22:46:36.679Z,4.79
2022-11-22T22:49:38.319Z,4.78
2022-11-22T22:52:39.880Z,4.77
2022-11-22T22:55:41.456Z,4.76
2022-11-22T22:58:43.730Z,4.74
2022-11-22T23:01:45.221Z,4.72
2022-11-22T23:04:46.764Z,4.70
2022-11-22T23:07:48.449Z,4.68
2022-11-22T23:10:50.056Z,4.66
2022-11-22T23:13:51.730Z,4.63
2022-11-22T23:16:57.659Z,4.61
2022-11-22T23:19:59.863Z,4.57
2022-11-22T23:23:01.445Z,4.53
2022-11-22T23:26:05.707Z,4.50
2022-11-22T23:29:07.476Z,4.45
2022-11-22T23:32:09.051Z,4.41
2022-11-22T23:35:10.616Z,4.38
2022-11-22T23:38:12.231Z,4.35
2022-11-22T23:41:16.377Z,4.32
2022-11-22T23:44:17.941Z,4.29
2022-11-22T23:47:19.447Z,4.27
2022-11-22T23:50:21.074Z,4.25
2022-11-22T23:53:23.267Z,4.24
2022-11-22T23:56:26.057Z,4.22
2022-11-22T23:59:27.622Z,4.20
